sensor_id;sensor_type;location;lat;lon;timestamp;pressure;altitude;pressure_sealevel;temperature;humidity
59654;BME280;66556;52.008;5.432;2023-02-02T00:00:21;102064.0;;;21.27;40.96
59654;BME280;66556;52.008;5.432;2023-02-02T00:01:59;102064.0;;;21.54;40.6
59654;BME280;66556;52.008;5.432;2023-02-02T00:05:13;102065.0;;;21.25;40.82
59654;BME280;66556;52.008;5.432;2023-02-02T00:06:51;102074.0;;;20.98;41.52
59654;BME280;66556;52.008;5.432;2023-02-02T00:08:27;102066.0;;;21.5;40.33
59654;BME280;66556;52.008;5.432;2023-02-02T00:10:04;102068.0;;;21.69;40.21
59654;BME280;66556;52.008;5.432;2023-02-02T00:13:20;102068.0;;;21.62;40.31
59654;BME280;66556;52.008;5.432;2023-02-02T00:14:56;102063.0;;;21.92;39.39
59654;BME280;66556;52.008;5.432;2023-02-02T00:16:35;102072.0;;;21.54;40.18
59654;BME280;66556;52.008;5.432;2023-02-02T00:19:49;102069.0;;;21.2;40.49
59654;BME280;66556;52.008;5.432;2023-02-02T00:21:25;102077.0;;;21.02;41.49
59654;BME280;66556;52.008;5.432;2023-02-02T00:23:03;102087.0;;;21.16;40.99
59654;BME280;66556;52.008;5.432;2023-02-02T00:26:17;102080.0;;;21.42;41.57
59654;BME280;66556;52.008;5.432;2023-02-02T00:27:53;102088.0;;;20.69;41.94
59654;BME280;66556;52.008;5.432;2023-02-02T00:29:30;102086.0;;;21.31;40.81
59654;BME280;66556;52.008;5.432;2023-02-02T00:31:07;102085.0;;;21.45;40.58
59654;BME280;66556;52.008;5.432;2023-02-02T00:34:24;102086.0;;;20.25;42.98
59654;BME280;66556;52.008;5.432;2023-02-02T00:36:01;102082.0;;;20.9;42.0
59654;BME280;66556;52.008;5.432;2023-02-02T00:37:38;102080.0;;;20.47;43.08
59654;BME280;66556;52.008;5.432;2023-02-02T00:40:53;102075.0;;;20.2;43.51
59654;BME280;66556;52.008;5.432;2023-02-02T00:42:29;102078.0;;;19.71;44.75
59654;BME280;66556;52.008;5.432;2023-02-02T00:45:25;102075.0;;;19.91;43.94
59654;BME280;66556;52.008;5.432;2023-02-02T00:47:01;102077.0;;;19.5;45.7
59654;BME280;66556;52.008;5.432;2023-02-02T00:48:38;102076.0;;;19.38;45.73
59654;BME280;66556;52.008;5.432;2023-02-02T00:50:17;102077.0;;;19.77;44.98
59654;BME280;66556;52.008;5.432;2023-02-02T00:51:54;102083.0;;;19.7;44.69
59654;BME280;66556;52.008;5.432;2023-02-02T00:55:09;102077.0;;;19.95;44.52
59654;BME280;66556;52.008;5.432;2023-02-02T00:56:45;102082.0;;;20.76;42.42
59654;BME280;66556;52.008;5.432;2023-02-02T00:58:22;102082.0;;;20.72;42.0
59654;BME280;66556;52.008;5.432;2023-02-02T01:01:35;102084.0;;;20.07;43.52
59654;BME280;66556;52.008;5.432;2023-02-02T01:03:12;102081.0;;;19.84;44.67
59654;BME280;66556;52.008;5.432;2023-02-02T01:04:48;102091.0;;;20.09;44.19
59654;BME280;66556;52.008;5.432;2023-02-02T01:08:00;102085.0;;;20.95;42.54
59654;BME280;66556;52.008;5.432;2023-02-02T01:09:37;102085.0;;;20.25;43.99
59654;BME280;66556;52.008;5.432;2023-02-02T01:11:13;102086.0;;;19.82;45.04
59654;BME280;66556;52.008;5.432;2023-02-02T01:12:50;102084.0;;;20.14;43.36
59654;BME280;66556;52.008;5.432;2023-02-02T01:16:05;102094.0;;;20.55;42.72
59654;BME280;66556;52.008;5.432;2023-02-02T01:17:41;102098.0;;;20.43;43.38
59654;BME280;66556;52.008;5.432;2023-02-02T01:19:18;102090.0;;;19.75;44.06
59654;BME280;66556;52.008;5.432;2023-02-02T01:22:34;102088.0;;;19.87;44.05
59654;BME280;66556;52.008;5.432;2023-02-02T01:24:10;102090.0;;;19.96;44.1
59654;BME280;66556;52.008;5.432;2023-02-02T01:25:52;102088.0;;;19.53;44.67
59654;BME280;66556;52.008;5.432;2023-02-02T01:27:28;102088.0;;;19.56;44.85
59654;BME280;66556;52.008;5.432;2023-02-02T01:30:41;102098.0;;;20.2;43.39
59654;BME280;66556;52.008;5.432;2023-02-02T01:32:17;102101.0;;;20.37;43.02
59654;BME280;66556;52.008;5.432;2023-02-02T01:33:53;102100.0;;;20.38;42.35
59654;BME280;66556;52.008;5.432;2023-02-02T01:37:05;102100.0;;;20.29;42.64
59654;BME280;66556;52.008;5.432;2023-02-02T01:38:42;102106.0;;;20.11;42.47
59654;BME280;66556;52.008;5.432;2023-02-02T01:40:19;102109.0;;;20.14;43.22
59654;BME280;66556;52.008;5.432;2023-02-02T01:43:50;102105.0;;;19.7;44.1
59654;BME280;66556;52.008;5.432;2023-02-02T01:45:28;102102.0;;;20.06;43.57
59654;BME280;66556;52.008;5.432;2023-02-02T01:47:05;102106.0;;;20.25;43.04
59654;BME280;66556;52.008;5.432;2023-02-02T01:48:44;102108.0;;;20.69;41.46
59654;BME280;66556;52.008;5.432;2023-02-02T01:52:10;102111.0;;;20.91;41.33
59654;BME280;66556;52.008;5.432;2023-02-02T01:53:50;102105.0;;;20.93;41.39
59654;BME280;66556;52.008;5.432;2023-02-02T01:55:30;102105.0;;;20.54;42.02
59654;BME280;66556;52.008;5.432;2023-02-02T01:57:11;102099.0;;;20.31;42.59
59654;BME280;66556;52.008;5.432;2023-02-02T02:00:27;102105.0;;;20.85;41.58
59654;BME280;66556;52.008;5.432;2023-02-02T02:02:05;102096.0;;;21.04;40.96
59654;BME280;66556;52.008;5.432;2023-02-02T02:03:41;102103.0;;;21.14;40.92
59654;BME280;66556;52.008;5.432;2023-02-02T02:05:23;102112.0;;;21.24;40.39
59654;BME280;66556;52.008;5.432;2023-02-02T02:08:46;102102.0;;;21.14;40.58
59654;BME280;66556;52.008;5.432;2023-02-02T02:10:36;102102.0;;;21.11;40.74
59654;BME280;66556;52.008;5.432;2023-02-02T02:12:14;102099.0;;;21.03;40.98
59654;BME280;66556;52.008;5.432;2023-02-02T02:18:08;102095.0;;;21.51;39.68
59654;BME280;66556;52.008;5.432;2023-02-02T02:28:32;102090.0;;;21.67;39.82
59654;BME280;66556;52.008;5.432;2023-02-02T02:34:36;102090.0;;;20.99;41.63
59654;BME280;66556;52.008;5.432;2023-02-02T02:38:10;102090.0;;;21.14;40.96
59654;BME280;66556;52.008;5.432;2023-02-02T02:39:54;102086.0;;;21.8;39.99
59654;BME280;66556;52.008;5.432;2023-02-02T02:41:37;102085.0;;;21.5;39.92
59654;BME280;66556;52.008;5.432;2023-02-02T02:43:22;102087.0;;;21.25;40.64
59654;BME280;66556;52.008;5.432;2023-02-02T02:45:03;102084.0;;;20.65;41.83
59654;BME280;66556;52.008;5.432;2023-02-02T02:48:18;102083.0;;;20.81;41.45
59654;BME280;66556;52.008;5.432;2023-02-02T02:49:55;102087.0;;;21.08;41.3
59654;BME280;66556;52.008;5.432;2023-02-02T02:51:41;102087.0;;;20.95;41.49
59654;BME280;66556;52.008;5.432;2023-02-02T02:53:26;102082.0;;;20.83;41.95
59654;BME280;66556;52.008;5.432;2023-02-02T02:56:51;102078.0;;;20.9;41.85
59654;BME280;66556;52.008;5.432;2023-02-02T02:59:42;102059.0;;;20.86;41.44
59654;BME280;66556;52.008;5.432;2023-02-02T03:03:16;102063.0;;;20.28;43.08
59654;BME280;66556;52.008;5.432;2023-02-02T03:05:06;102057.0;;;20.97;41.64
59654;BME280;66556;52.008;5.432;2023-02-02T03:06:52;102055.0;;;21.16;41.15
59654;BME280;66556;52.008;5.432;2023-02-02T03:08:32;102061.0;;;20.98;41.07
59654;BME280;66556;52.008;5.432;2023-02-02T03:10:14;102050.0;;;21.36;40.18
59654;BME280;66556;52.008;5.432;2023-02-02T03:13:31;102057.0;;;20.36;42.08
59654;BME280;66556;52.008;5.432;2023-02-02T03:15:08;102055.0;;;21.59;39.57
59654;BME280;66556;52.008;5.432;2023-02-02T03:16:45;102063.0;;;20.72;41.3
59654;BME280;66556;52.008;5.432;2023-02-02T03:18:24;102069.0;;;20.56;41.62
59654;BME280;66556;52.008;5.432;2023-02-02T03:21:39;102070.0;;;20.38;42.36
59654;BME280;66556;52.008;5.432;2023-02-02T03:23:15;102076.0;;;20.02;43.61
59654;BME280;66556;52.008;5.432;2023-02-02T03:24:52;102082.0;;;20.49;42.56
59654;BME280;66556;52.008;5.432;2023-02-02T03:28:05;102092.0;;;20.54;42.04
59654;BME280;66556;52.008;5.432;2023-02-02T03:29:42;102090.0;;;20.25;43.33
59654;BME280;66556;52.008;5.432;2023-02-02T03:31:18;102092.0;;;20.25;42.75
59654;BME280;66556;52.008;5.432;2023-02-02T03:34:31;102091.0;;;20.16;43.37
59654;BME280;66556;52.008;5.432;2023-02-02T03:36:08;102096.0;;;20.2;43.63
59654;BME280;66556;52.008;5.432;2023-02-02T03:37:45;102105.0;;;19.96;44.05
59654;BME280;66556;52.008;5.432;2023-02-02T03:39:21;102106.0;;;20.7;42.59
59654;BME280;66556;52.008;5.432;2023-02-02T03:42:34;102101.0;;;19.72;44.09
59654;BME280;66556;52.008;5.432;2023-02-02T03:44:10;102101.0;;;20.29;42.88
59654;BME280;66556;52.008;5.432;2023-02-02T03:45:46;102102.0;;;20.16;43.32
59654;BME280;66556;52.008;5.432;2023-02-02T03:48:58;102093.0;;;20.05;43.41
59654;BME280;66556;52.008;5.432;2023-02-02T03:50:36;102100.0;;;20.65;42.33
59654;BME280;66556;52.008;5.432;2023-02-02T03:52:12;102103.0;;;20.22;42.87
59654;BME280;66556;52.008;5.432;2023-02-02T03:55:25;102097.0;;;20.73;41.81
59654;BME280;66556;52.008;5.432;2023-02-02T03:57:01;102101.0;;;20.98;41.13
59654;BME280;66556;52.008;5.432;2023-02-02T03:58:37;102095.0;;;21.93;39.1
59654;BME280;66556;52.008;5.432;2023-02-02T04:00:14;102098.0;;;21.2;40.33
59654;BME280;66556;52.008;5.432;2023-02-02T04:03:27;102099.0;;;20.62;41.66
59654;BME280;66556;52.008;5.432;2023-02-02T04:05:03;102105.0;;;20.27;42.76
59654;BME280;66556;52.008;5.432;2023-02-02T04:06:40;102103.0;;;19.86;43.65
59654;BME280;66556;52.008;5.432;2023-02-02T04:09:52;102105.0;;;20.45;42.58
59654;BME280;66556;52.008;5.432;2023-02-02T04:11:28;102095.0;;;20.47;42.01
59654;BME280;66556;52.008;5.432;2023-02-02T04:13:04;102092.0;;;21.53;39.61
59654;BME280;66556;52.008;5.432;2023-02-02T04:16:16;102090.0;;;21.9;38.75
59654;BME280;66556;52.008;5.432;2023-02-02T04:17:52;102083.0;;;21.74;39.08
59654;BME280;66556;52.008;5.432;2023-02-02T04:19:28;102089.0;;;21.25;40.43
59654;BME280;66556;52.008;5.432;2023-02-02T04:22:43;102087.0;;;20.7;41.58
59654;BME280;66556;52.008;5.432;2023-02-02T04:24:20;102087.0;;;20.67;41.5
59654;BME280;66556;52.008;5.432;2023-02-02T04:25:57;102083.0;;;20.57;41.78
59654;BME280;66556;52.008;5.432;2023-02-02T04:27:34;102083.0;;;20.99;40.99
59654;BME280;66556;52.008;5.432;2023-02-02T04:30:47;102084.0;;;20.89;40.83
59654;BME280;66556;52.008;5.432;2023-02-02T04:32:23;102088.0;;;21.08;40.6
59654;BME280;66556;52.008;5.432;2023-02-02T04:33:59;102094.0;;;20.45;41.77
59654;BME280;66556;52.008;5.432;2023-02-02T04:37:12;102089.0;;;21.14;40.46
59654;BME280;66556;52.008;5.432;2023-02-02T04:38:48;102087.0;;;21.17;40.42
59654;BME280;66556;52.008;5.432;2023-02-02T04:40:25;102085.0;;;21.65;39.31
59654;BME280;66556;52.008;5.432;2023-02-02T04:43:39;102100.0;;;21.04;40.22
59654;BME280;66556;52.008;5.432;2023-02-02T04:45:15;102099.0;;;20.83;40.61
59654;BME280;66556;52.008;5.432;2023-02-02T04:46:52;102108.0;;;20.88;40.92
59654;BME280;66556;52.008;5.432;2023-02-02T04:48:28;102100.0;;;20.92;40.92
59654;BME280;66556;52.008;5.432;2023-02-02T04:51:43;102084.0;;;22.05;38.85
59654;BME280;66556;52.008;5.432;2023-02-02T04:53:19;102090.0;;;21.07;40.28
59654;BME280;66556;52.008;5.432;2023-02-02T04:54:56;102099.0;;;20.71;41.15
59654;BME280;66556;52.008;5.432;2023-02-02T04:58:09;102093.0;;;21.0;40.39
59654;BME280;66556;52.008;5.432;2023-02-02T04:59:45;102098.0;;;21.03;40.58
59654;BME280;66556;52.008;5.432;2023-02-02T05:01:21;102099.0;;;21.26;40.11
59654;BME280;66556;52.008;5.432;2023-02-02T05:02:59;102100.0;;;21.17;40.26
59654;BME280;66556;52.008;5.432;2023-02-02T05:06:12;102107.0;;;21.0;40.67
59654;BME280;66556;52.008;5.432;2023-02-02T05:07:48;102112.0;;;20.28;42.0
59654;BME280;66556;52.008;5.432;2023-02-02T05:09:25;102117.0;;;20.06;43.01
59654;BME280;66556;52.008;5.432;2023-02-02T05:12:42;102111.0;;;20.05;42.73
59654;BME280;66556;52.008;5.432;2023-02-02T05:14:19;102119.0;;;20.52;42.19
59654;BME280;66556;52.008;5.432;2023-02-02T05:15:55;102130.0;;;20.43;42.01
59654;BME280;66556;52.008;5.432;2023-02-02T05:19:10;102121.0;;;20.98;41.13
59654;BME280;66556;52.008;5.432;2023-02-02T05:20:48;102124.0;;;20.84;40.85
59654;BME280;66556;52.008;5.432;2023-02-02T05:22:25;102130.0;;;20.88;40.81
59654;BME280;66556;52.008;5.432;2023-02-02T05:24:03;102121.0;;;20.03;42.96
59654;BME280;66556;52.008;5.432;2023-02-02T05:27:15;102123.0;;;19.97;43.49
59654;BME280;66556;52.008;5.432;2023-02-02T05:28:52;102127.0;;;19.82;44.16
59654;BME280;66556;52.008;5.432;2023-02-02T05:30:28;102116.0;;;20.65;41.78
59654;BME280;66556;52.008;5.432;2023-02-02T05:33:41;102119.0;;;20.82;41.24
59654;BME280;66556;52.008;5.432;2023-02-02T05:35:18;102119.0;;;20.83;41.62
59654;BME280;66556;52.008;5.432;2023-02-02T05:36:54;102117.0;;;21.03;40.62
59654;BME280;66556;52.008;5.432;2023-02-02T05:38:30;102118.0;;;20.86;41.31
59654;BME280;66556;52.008;5.432;2023-02-02T05:41:45;102115.0;;;21.0;40.74
59654;BME280;66556;52.008;5.432;2023-02-02T05:43:23;102120.0;;;20.81;41.12
59654;BME280;66556;52.008;5.432;2023-02-02T05:45:01;102118.0;;;21.04;41.19
59654;BME280;66556;52.008;5.432;2023-02-02T05:48:13;102114.0;;;21.28;40.04
59654;BME280;66556;52.008;5.432;2023-02-02T05:49:49;102113.0;;;21.52;39.92
59654;BME280;66556;52.008;5.432;2023-02-02T05:51:28;102118.0;;;21.37;40.28
59654;BME280;66556;52.008;5.432;2023-02-02T05:54:43;102109.0;;;21.42;40.21
59654;BME280;66556;52.008;5.432;2023-02-02T05:56:20;102116.0;;;20.99;40.81
59654;BME280;66556;52.008;5.432;2023-02-02T05:57:56;102115.0;;;21.05;40.89
59654;BME280;66556;52.008;5.432;2023-02-02T05:59:32;102110.0;;;21.41;40.54
59654;BME280;66556;52.008;5.432;2023-02-02T06:02:44;102124.0;;;20.51;41.88
59654;BME280;66556;52.008;5.432;2023-02-02T06:04:21;102122.0;;;19.93;43.02
59654;BME280;66556;52.008;5.432;2023-02-02T06:05:57;102128.0;;;19.97;43.7
59654;BME280;66556;52.008;5.432;2023-02-02T06:09:10;102127.0;;;19.91;43.43
59654;BME280;66556;52.008;5.432;2023-02-02T06:10:46;102131.0;;;20.06;43.65
59654;BME280;66556;52.008;5.432;2023-02-02T06:12:22;102131.0;;;20.41;42.61
59654;BME280;66556;52.008;5.432;2023-02-02T06:15:35;102132.0;;;19.87;43.57
59654;BME280;66556;52.008;5.432;2023-02-02T06:17:12;102132.0;;;19.84;44.01
59654;BME280;66556;52.008;5.432;2023-02-02T06:18:49;102134.0;;;19.77;44.87
59654;BME280;66556;52.008;5.432;2023-02-02T06:20:26;102132.0;;;20.3;43.54
59654;BME280;66556;52.008;5.432;2023-02-02T06:23:44;102131.0;;;20.58;42.25
59654;BME280;66556;52.008;5.432;2023-02-02T06:25:21;102131.0;;;20.73;42.42
59654;BME280;66556;52.008;5.432;2023-02-02T06:26:58;102133.0;;;20.27;43.29
59654;BME280;66556;52.008;5.432;2023-02-02T06:30:12;102135.0;;;20.52;43.1
59654;BME280;66556;52.008;5.432;2023-02-02T06:31:49;102138.0;;;20.41;43.32
59654;BME280;66556;52.008;5.432;2023-02-02T06:33:25;102144.0;;;20.0;44.46
59654;BME280;66556;52.008;5.432;2023-02-02T06:35:03;102143.0;;;19.73;44.66
59654;BME280;66556;52.008;5.432;2023-02-02T06:38:18;102147.0;;;20.06;44.34
59654;BME280;66556;52.008;5.432;2023-02-02T06:39:55;102151.0;;;19.59;45.69
59654;BME280;66556;52.008;5.432;2023-02-02T06:41:31;102152.0;;;19.96;45.09
59654;BME280;66556;52.008;5.432;2023-02-02T06:44:44;102153.0;;;20.22;44.56
59654;BME280;66556;52.008;5.432;2023-02-02T06:47:58;102156.0;;;20.5;43.48
59654;BME280;66556;52.008;5.432;2023-02-02T06:51:13;102165.0;;;20.66;43.08
59654;BME280;66556;52.008;5.432;2023-02-02T06:52:50;102166.0;;;20.86;42.66
59654;BME280;66556;52.008;5.432;2023-02-02T06:54:26;102168.0;;;20.47;43.4
59654;BME280;66556;52.008;5.432;2023-02-02T06:56:04;102165.0;;;20.61;42.88
59654;BME280;66556;52.008;5.432;2023-02-02T06:59:19;102174.0;;;20.49;43.87
59654;BME280;66556;52.008;5.432;2023-02-02T07:01:00;102170.0;;;19.93;44.64
59654;BME280;66556;52.008;5.432;2023-02-02T07:02:37;102171.0;;;19.57;45.66
59654;BME280;66556;52.008;5.432;2023-02-02T07:05:52;102171.0;;;19.5;46.48
59654;BME280;66556;52.008;5.432;2023-02-02T07:07:30;102173.0;;;19.98;44.96
59654;BME280;66556;52.008;5.432;2023-02-02T07:09:08;102173.0;;;20.16;45.22
59654;BME280;66556;52.008;5.432;2023-02-02T07:10:44;102172.0;;;20.13;44.73
59654;BME280;66556;52.008;5.432;2023-02-02T07:13:56;102167.0;;;19.68;46.1
59654;BME280;66556;52.008;5.432;2023-02-02T07:15:33;102163.0;;;20.45;44.59
59654;BME280;66556;52.008;5.432;2023-02-02T07:17:09;102172.0;;;20.5;44.05
59654;BME280;66556;52.008;5.432;2023-02-02T07:20:23;102170.0;;;19.53;45.78
59654;BME280;66556;52.008;5.432;2023-02-02T07:21:59;102169.0;;;19.97;45.5
59654;BME280;66556;52.008;5.432;2023-02-02T07:23:35;102173.0;;;20.48;44.19
59654;BME280;66556;52.008;5.432;2023-02-02T07:25:11;102176.0;;;20.11;45.36
59654;BME280;66556;52.008;5.432;2023-02-02T07:28:25;102178.0;;;20.55;43.66
59654;BME280;66556;52.008;5.432;2023-02-02T07:30:03;102184.0;;;20.0;45.36
59654;BME280;66556;52.008;5.432;2023-02-02T07:31:40;102184.0;;;20.05;45.41
59654;BME280;66556;52.008;5.432;2023-02-02T07:36:29;102195.0;;;20.22;45.44
59654;BME280;66556;52.008;5.432;2023-02-02T07:38:04;102193.0;;;20.53;44.56
59654;BME280;66556;52.008;5.432;2023-02-02T07:41:19;102197.0;;;20.67;43.92
59654;BME280;66556;52.008;5.432;2023-02-02T07:42:59;102198.0;;;20.7;44.22
59654;BME280;66556;52.008;5.432;2023-02-02T07:44:36;102205.0;;;20.45;44.6
59654;BME280;66556;52.008;5.432;2023-02-02T07:46:14;102202.0;;;20.85;43.5
59654;BME280;66556;52.008;5.432;2023-02-02T07:49:31;102202.0;;;20.84;43.26
59654;BME280;66556;52.008;5.432;2023-02-02T07:51:10;102205.0;;;20.58;44.13
59654;BME280;66556;52.008;5.432;2023-02-02T07:52:50;102205.0;;;20.76;44.01
59654;BME280;66556;52.008;5.432;2023-02-02T07:56:06;102208.0;;;20.86;43.85
59654;BME280;66556;52.008;5.432;2023-02-02T07:57:44;102206.0;;;20.72;43.87
59654;BME280;66556;52.008;5.432;2023-02-02T07:59:21;102213.0;;;20.02;45.49
59654;BME280;66556;52.008;5.432;2023-02-02T08:00:59;102210.0;;;20.36;45.03
59654;BME280;66556;52.008;5.432;2023-02-02T08:04:12;102211.0;;;20.29;44.6
59654;BME280;66556;52.008;5.432;2023-02-02T08:05:50;102218.0;;;19.93;45.79
59654;BME280;66556;52.008;5.432;2023-02-02T08:07:26;102226.0;;;20.53;44.53
59654;BME280;66556;52.008;5.432;2023-02-02T08:10:46;102222.0;;;20.29;44.58
59654;BME280;66556;52.008;5.432;2023-02-02T08:12:25;102230.0;;;20.32;44.93
59654;BME280;66556;52.008;5.432;2023-02-02T08:14:02;102227.0;;;19.73;45.56
59654;BME280;66556;52.008;5.432;2023-02-02T08:15:39;102234.0;;;19.72;46.22
59654;BME280;66556;52.008;5.432;2023-02-02T08:18:52;102233.0;;;19.47;46.56
59654;BME280;66556;52.008;5.432;2023-02-02T08:20:29;102228.0;;;19.43;47.29
59654;BME280;66556;52.008;5.432;2023-02-02T08:22:05;102228.0;;;20.0;45.61
59654;BME280;66556;52.008;5.432;2023-02-02T08:25:19;102232.0;;;19.18;46.37
59654;BME280;66556;52.008;5.432;2023-02-02T08:26:54;102237.0;;;19.47;46.39
59654;BME280;66556;52.008;5.432;2023-02-02T08:28:31;102247.0;;;19.45;46.65
59654;BME280;66556;52.008;5.432;2023-02-02T08:30:08;102245.0;;;19.68;46.11
59654;BME280;66556;52.008;5.432;2023-02-02T08:33:22;102241.0;;;19.82;45.4
59654;BME280;66556;52.008;5.432;2023-02-02T08:34:58;102248.0;;;20.34;44.2
59654;BME280;66556;52.008;5.432;2023-02-02T08:36:35;102259.0;;;19.3;46.38
59654;BME280;66556;52.008;5.432;2023-02-02T08:39:47;102256.0;;;19.68;46.41
59654;BME280;66556;52.008;5.432;2023-02-02T08:41:23;102265.0;;;20.0;45.51
59654;BME280;66556;52.008;5.432;2023-02-02T08:42:59;102268.0;;;19.41;46.27
59654;BME280;66556;52.008;5.432;2023-02-02T08:47:52;102269.0;;;20.27;44.18
59654;BME280;66556;52.008;5.432;2023-02-02T08:49:29;102271.0;;;20.29;43.91
59654;BME280;66556;52.008;5.432;2023-02-02T08:51:06;102280.0;;;20.29;44.06
59654;BME280;66556;52.008;5.432;2023-02-02T08:54:20;102275.0;;;19.93;44.85
59654;BME280;66556;52.008;5.432;2023-02-02T08:55:58;102281.0;;;19.77;45.81
59654;BME280;66556;52.008;5.432;2023-02-02T08:57:35;102285.0;;;19.68;45.57
59654;BME280;66556;52.008;5.432;2023-02-02T09:00:47;102285.0;;;20.31;44.05
59654;BME280;66556;52.008;5.432;2023-02-02T09:02:23;102286.0;;;20.0;44.55
59654;BME280;66556;52.008;5.432;2023-02-02T09:04:01;102289.0;;;20.02;44.94
59654;BME280;66556;52.008;5.432;2023-02-02T09:05:39;102290.0;;;19.7;45.72
59654;BME280;66556;52.008;5.432;2023-02-02T09:08:51;102287.0;;;19.68;45.98
59654;BME280;66556;52.008;5.432;2023-02-02T09:10:33;102288.0;;;19.09;47.02
59654;BME280;66556;52.008;5.432;2023-02-02T09:12:11;102291.0;;;19.25;46.9
59654;BME280;66556;52.008;5.432;2023-02-02T09:15:28;102293.0;;;20.09;45.0
59654;BME280;66556;52.008;5.432;2023-02-02T09:17:05;102299.0;;;20.07;44.9
59654;BME280;66556;52.008;5.432;2023-02-02T09:18:42;102298.0;;;20.18;45.13
59654;BME280;66556;52.008;5.432;2023-02-02T09:20:19;102301.0;;;19.68;45.06
59654;BME280;66556;52.008;5.432;2023-02-02T09:23:33;102310.0;;;20.11;44.52
59654;BME280;66556;52.008;5.432;2023-02-02T09:25:13;102313.0;;;19.84;45.24
59654;BME280;66556;52.008;5.432;2023-02-02T09:26:50;102319.0;;;19.7;45.48
59654;BME280;66556;52.008;5.432;2023-02-02T09:30:03;102318.0;;;19.81;45.63
59654;BME280;66556;52.008;5.432;2023-02-02T09:31:40;102319.0;;;20.61;43.48
59654;BME280;66556;52.008;5.432;2023-02-02T09:33:16;102326.0;;;20.95;42.85
59654;BME280;66556;52.008;5.432;2023-02-02T09:34:53;102326.0;;;21.02;42.32
59654;BME280;66556;52.008;5.432;2023-02-02T09:38:06;102324.0;;;20.58;43.17
59654;BME280;66556;52.008;5.432;2023-02-02T09:39:42;102326.0;;;19.86;45.88
59654;BME280;66556;52.008;5.432;2023-02-02T09:41:33;102333.0;;;20.34;44.28
59654;BME280;66556;52.008;5.432;2023-02-02T09:43:39;102334.0;;;20.36;44.24
59654;BME280;66556;52.008;5.432;2023-02-02T09:45:27;102336.0;;;20.09;45.2
59654;BME280;66556;52.008;5.432;2023-02-02T09:48:57;102343.0;;;20.09;44.62
59654;BME280;66556;52.008;5.432;2023-02-02T09:50:43;102344.0;;;20.43;44.12
59654;BME280;66556;52.008;5.432;2023-02-02T09:52:25;102335.0;;;20.81;42.76
59654;BME280;66556;52.008;5.432;2023-02-02T09:54:10;102345.0;;;20.23;43.81
59654;BME280;66556;52.008;5.432;2023-02-02T09:55:54;102344.0;;;20.2;44.32
59654;BME280;66556;52.008;5.432;2023-02-02T09:59:22;102345.0;;;20.61;44.18
59654;BME280;66556;52.008;5.432;2023-02-02T10:01:03;102345.0;;;20.34;43.97
59654;BME280;66556;52.008;5.432;2023-02-02T10:02:46;102350.0;;;20.25;44.52
59654;BME280;66556;52.008;5.432;2023-02-02T10:04:26;102347.0;;;19.88;44.75
59654;BME280;66556;52.008;5.432;2023-02-02T10:08:00;102353.0;;;20.62;43.75
59654;BME280;66556;52.008;5.432;2023-02-02T10:09:46;102355.0;;;20.18;44.39
59654;BME280;66556;52.008;5.432;2023-02-02T10:11:30;102355.0;;;20.07;44.73
59654;BME280;66556;52.008;5.432;2023-02-02T10:13:14;102369.0;;;20.18;44.81
59654;BME280;66556;52.008;5.432;2023-02-02T10:14:55;102361.0;;;21.12;42.08
59654;BME280;66556;52.008;5.432;2023-02-02T10:18:19;102368.0;;;20.88;42.8
59654;BME280;66556;52.008;5.432;2023-02-02T10:20:09;102368.0;;;20.75;43.14
59654;BME280;66556;52.008;5.432;2023-02-02T10:21:56;102368.0;;;21.05;42.44
59654;BME280;66556;52.008;5.432;2023-02-02T10:23:39;102369.0;;;21.49;41.61
59654;BME280;66556;52.008;5.432;2023-02-02T10:25:18;102373.0;;;21.4;41.63
59654;BME280;66556;52.008;5.432;2023-02-02T10:28:42;102372.0;;;20.56;43.4
59654;BME280;66556;52.008;5.432;2023-02-02T10:30:37;102376.0;;;20.73;43.41
59654;BME280;66556;52.008;5.432;2023-02-02T10:32:24;102377.0;;;21.46;41.79
59654;BME280;66556;52.008;5.432;2023-02-02T10:34:09;102378.0;;;20.94;42.86
59654;BME280;66556;52.008;5.432;2023-02-02T10:35:53;102381.0;;;21.39;42.09
59654;BME280;66556;52.008;5.432;2023-02-02T10:39:27;102375.0;;;21.39;41.41
59654;BME280;66556;52.008;5.432;2023-02-02T10:41:17;102374.0;;;21.56;41.63
59654;BME280;66556;52.008;5.432;2023-02-02T10:44:08;102378.0;;;21.22;41.85
59654;BME280;66556;52.008;5.432;2023-02-02T10:45:51;102382.0;;;21.66;41.2
59654;BME280;66556;52.008;5.432;2023-02-02T10:47:32;102387.0;;;21.51;41.65
59654;BME280;66556;52.008;5.432;2023-02-02T10:49:18;102386.0;;;21.67;41.3
59654;BME280;66556;52.008;5.432;2023-02-02T10:51:01;102391.0;;;21.81;40.62
59654;BME280;66556;52.008;5.432;2023-02-02T10:52:45;102394.0;;;21.9;40.5
59654;BME280;66556;52.008;5.432;2023-02-02T10:54:33;102393.0;;;21.96;40.14
59654;BME280;66556;52.008;5.432;2023-02-02T10:56:39;102400.0;;;21.88;40.12
59654;BME280;66556;52.008;5.432;2023-02-02T11:00:09;102405.0;;;21.81;39.99
59654;BME280;66556;52.008;5.432;2023-02-02T11:01:50;102395.0;;;21.78;40.28
59654;BME280;66556;52.008;5.432;2023-02-02T11:03:28;102398.0;;;21.57;40.11
59654;BME280;66556;52.008;5.432;2023-02-02T11:06:54;102396.0;;;21.86;39.97
59654;BME280;66556;52.008;5.432;2023-02-02T11:08:40;102386.0;;;21.7;40.03
59654;BME280;66556;52.008;5.432;2023-02-02T11:10:17;102392.0;;;21.56;40.49
59654;BME280;66556;52.008;5.432;2023-02-02T11:11:56;102401.0;;;21.45;40.58
59654;BME280;66556;52.008;5.432;2023-02-02T11:13:42;102396.0;;;21.49;40.69
59654;BME280;66556;52.008;5.432;2023-02-02T11:15:24;102398.0;;;21.83;40.14
59654;BME280;66556;52.008;5.432;2023-02-02T11:18:42;102391.0;;;21.77;40.07
59654;BME280;66556;52.008;5.432;2023-02-02T11:20:23;102380.0;;;21.76;40.14
59654;BME280;66556;52.008;5.432;2023-02-02T11:22:23;102380.0;;;21.17;41.27
59654;BME280;66556;52.008;5.432;2023-02-02T11:24:02;102380.0;;;21.73;40.24
59654;BME280;66556;52.008;5.432;2023-02-02T11:27:20;102384.0;;;22.09;39.67
59654;BME280;66556;52.008;5.432;2023-02-02T11:28:57;102382.0;;;21.88;40.08
59654;BME280;66556;52.008;5.432;2023-02-02T11:30:35;102377.0;;;21.79;40.08